Terminal Aerodrome Forecast
Issued by NWS

Current Version | Previous Version | Text Only | Print | Product List | Glossary On
Versions: 1 2 3 4 5 6 7 8 9 10 11 12 13 14
000
FTUS45 KRIW 110600 AAA
TAFWRL
TAF AMD
KWRL 110605Z 1106/1206 VRB05KT P6SM VCSH SCT100 BKN150
     FM111000 VRB05KT P6SM SCT120
     FM112200 35007KT P6SM VCSH SCT070 BKN110
     FM120300 VRB06KT P6SM SCT120=

USA.gov is the U.S. government's official web portal to all federal, state and local government web resources and services.